Time;durP1;ratioP1;P1;durP2;ratioP2;P2;SDS_P1;SDS_P2;PMS_P1;PMS_P2;Temp;Humidity;BMP_temperature;BMP_pressure;BME280_temperature;BME280_humidity;BME280_pressure;Samples;Min_cycle;Max_cycle;Signal;HPM_P1;HPM_P2
2022/11/11 00:00:13;;;;;;;6.93;2.73;;;17.50;69.40;18.60;102083.00;;;;4988844;28;20202;-49
2022/11/11 00:02:39;;;;;;;4.17;2.30;;;17.40;69.30;18.60;102082.00;;;;4988700;28;20599;-50
2022/11/11 00:05:05;;;;;;;5.57;2.53;;;17.40;69.30;18.60;102069.00;;;;4989068;28;20180;-49
2022/11/11 00:07:30;;;;;;;3.87;2.40;;;17.40;69.30;18.50;102097.00;;;;4988873;28;20176;-50
2022/11/11 00:09:56;;;;;;;5.60;2.70;;;17.40;69.30;18.50;102101.00;;;;4988253;28;20172;-49
2022/11/11 00:12:22;;;;;;;4.60;2.30;;;17.40;69.30;18.50;102097.00;;;;4988108;28;20531;-49
2022/11/11 00:14:48;;;;;;;3.17;2.10;;;17.40;69.30;18.50;102099.00;;;;4988549;28;20684;-49
2022/11/11 00:25:26;;;;;;;4.43;2.27;;;17.30;69.20;18.40;102101.00;;;;4989975;28;20375;-51
2022/11/11 00:27:52;;;;;;;3.20;2.20;;;17.30;69.20;18.40;102096.00;;;;4988512;28;20728;-49
2022/11/11 00:30:17;;;;;;;3.97;2.30;;;17.30;69.20;18.40;102112.00;;;;4988344;28;20708;-49
2022/11/11 00:32:43;;;;;;;4.33;2.50;;;17.20;69.10;18.40;102034.00;;;;4987731;28;20193;-49
2022/11/11 00:37:54;;;;;;;3.17;2.20;;;17.20;69.20;18.30;102131.00;;;;4988349;28;20212;-48
2022/11/11 00:40:19;;;;;;;3.07;2.20;;;17.20;69.30;18.40;102136.00;;;;4988359;28;20192;-49
2022/11/11 00:42:45;;;;;;;4.00;2.00;;;17.20;69.10;18.30;102135.00;;;;4987905;28;20227;-48
2022/11/11 00:45:11;;;;;;;4.63;2.40;;;17.20;69.20;18.30;102131.00;;;;4988344;28;20229;-50
2022/11/11 00:53:21;;;;;;;4.53;2.43;;;17.10;69.30;18.30;102111.00;;;;4988306;28;20274;-50
2022/11/11 00:55:47;;;;;;;3.20;2.10;;;17.10;69.20;18.30;102110.00;;;;4971690;28;20190;-49
2022/11/11 00:58:15;;;;;;;3.25;2.30;;;17.10;69.20;18.30;102122.00;;;;4988108;28;20246;-49
2022/11/11 01:00:42;;;;;;;2.50;2.00;;;17.10;69.40;18.30;102121.00;;;;4988331;28;20512;-50
2022/11/11 01:03:08;;;;;;;2.27;2.00;;;17.10;69.30;18.30;102134.00;;;;4987949;28;20212;-49
2022/11/11 01:05:35;;;;;;;2.37;2.07;;;17.10;69.30;18.20;102122.00;;;;4988081;28;20543;-49
2022/11/11 01:08:01;;;;;;;3.10;2.33;;;17.10;69.30;18.30;102128.00;;;;4970922;28;20654;-50
2022/11/11 01:10:40;;;;;;;3.13;2.10;;;17.10;69.30;18.20;102127.00;;;;4970740;28;20177;-50
2022/11/11 01:13:21;;;;;;;2.60;1.90;;;17.00;70.10;18.20;102125.00;;;;4988010;28;20226;-50
2022/11/11 01:15:49;;;;;;;3.20;2.10;;;17.00;69.20;18.20;102134.00;;;;4988019;28;20247;-49
2022/11/11 01:18:17;;;;;;;2.57;1.80;;;17.00;69.20;18.20;102133.00;;;;4987792;28;20190;-50
2022/11/11 01:20:43;;;;;;;3.10;2.20;;;17.00;69.30;18.20;102142.00;;;;4990671;28;20177;-50
2022/11/11 01:23:09;;;;;;;2.20;2.00;;;17.00;69.20;18.20;102138.00;;;;4991432;28;20241;-50
2022/11/11 01:25:35;;;;;;;3.07;2.20;;;17.00;69.20;18.20;102130.00;;;;4991688;28;20180;-49
2022/11/11 01:28:02;;;;;;;2.33;2.13;;;16.90;69.20;18.20;102127.00;;;;4991587;28;20622;-50
2022/11/11 01:30:29;;;;;;;2.30;2.10;;;16.90;69.30;18.20;102138.00;;;;4991633;28;20267;-49
2022/11/11 01:32:55;;;;;;;3.07;2.07;;;17.00;69.40;18.20;102134.00;;;;4974028;28;20253;-49
2022/11/11 01:35:21;;;;;;;5.00;2.13;;;16.90;69.30;18.20;102148.00;;;;4991866;28;20647;-49
2022/11/11 01:37:47;;;;;;;2.60;1.90;;;16.90;69.30;18.20;102145.00;;;;4991605;28;20180;-50
2022/11/11 01:40:12;;;;;;;2.37;2.03;;;16.90;69.30;18.10;102149.00;;;;4991353;28;20200;-50
2022/11/11 01:42:52;;;;;;;3.07;2.20;;;16.90;69.30;18.10;102152.00;;;;4991281;28;20600;-50
2022/11/11 01:45:59;;;;;;;2.23;2.00;;;16.90;69.40;18.10;102154.00;;;;4990559;28;20171;-50
2022/11/11 01:52:08;;;;;;;3.10;2.10;;;16.90;69.40;18.10;102146.00;;;;4977689;28;20669;-49
2022/11/11 01:54:44;;;;;;;2.60;2.20;;;16.90;69.30;18.10;102145.00;;;;4977495;28;20237;-50
2022/11/11 01:57:34;;;;;;;2.30;2.10;;;16.90;69.40;18.10;102149.00;;;;4974205;28;20263;-49
2022/11/11 02:00:09;;;;;;;2.23;2.03;;;16.90;69.40;18.10;102151.00;;;;4990969;28;20250;-49
2022/11/11 02:02:57;;;;;;;2.40;2.20;;;16.90;69.50;18.00;102163.00;;;;4974745;28;20173;-50
2022/11/11 02:05:42;;;;;;;2.10;1.90;;;16.80;69.40;18.00;102155.00;;;;4974837;28;20251;-50
2022/11/11 02:08:32;;;;;;;2.17;1.97;;;16.90;69.60;18.00;102147.00;;;;4976355;28;20219;-50
2022/11/11 02:14:34;;;;;;;2.80;2.20;;;16.80;69.60;18.00;102146.00;;;;4975088;28;20172;-49
2022/11/11 02:16:48;;;;;;;2.60;2.20;;;16.80;70.30;18.00;102137.00;;;;4990571;28;20207;-49
2022/11/11 02:19:14;;;;;;;1.90;1.80;;;16.80;69.60;18.00;102145.00;;;;4973155;28;20665;-49
2022/11/11 02:21:54;;;;;;;3.37;2.30;;;16.80;69.60;18.00;102127.00;;;;4972776;28;20270;-50
2022/11/11 02:24:20;;;;;;;2.20;2.00;;;16.80;69.60;18.00;102134.00;;;;4973416;28;20851;-50
2022/11/11 02:26:46;;;;;;;2.10;2.00;;;16.80;69.60;18.00;102018.00;;;;4973179;28;20226;-50
2022/11/11 02:29:14;;;;;;;2.20;1.90;;;16.80;69.60;18.00;102142.00;;;;4973433;28;20176;-51
2022/11/11 02:31:40;;;;;;;2.30;2.10;;;16.80;69.60;18.00;102154.00;;;;4972709;28;20257;-50
2022/11/11 02:34:06;;;;;;;2.27;2.07;;;16.80;69.50;18.00;102144.00;;;;4990530;28;20198;-50
2022/11/11 02:36:31;;;;;;;2.27;2.07;;;16.80;69.60;18.00;102152.00;;;;4990115;28;20174;-49
2022/11/11 02:38:57;;;;;;;1.83;1.73;;;16.80;69.60;18.00;102145.00;;;;4973063;28;20206;-49
2022/11/11 02:44:07;;;;;;;2.30;2.10;;;16.70;69.40;17.90;102148.00;;;;4990534;28;20558;-50
2022/11/11 02:46:32;;;;;;;2.30;2.10;;;16.70;69.40;17.90;102146.00;;;;4990096;28;20221;-49
2022/11/11 02:48:58;;;;;;;2.27;1.80;;;16.70;69.50;17.90;102137.00;;;;4990253;28;20776;-50
2022/11/11 02:51:24;;;;;;;3.27;2.00;;;16.70;69.60;17.90;102138.00;;;;4972477;28;20179;-49
2022/11/11 02:53:49;;;;;;;2.23;2.00;;;16.70;69.50;17.90;102138.00;;;;4990083;28;20225;-49
2022/11/11 02:57:05;;;;;;;2.03;1.90;;;16.70;69.60;17.90;102057.00;;;;4989811;28;20794;-49
2022/11/11 02:59:01;;;;;;;2.30;2.10;;;16.70;69.50;17.90;102121.00;;;;4989034;28;20200;-50
2022/11/11 03:01:27;;;;;;;2.20;2.00;;;16.70;69.40;17.90;102132.00;;;;4989778;28;20180;-51
2022/11/11 03:03:52;;;;;;;1.93;1.83;;;16.70;69.40;17.90;102131.00;;;;4989964;28;20197;-49
2022/11/11 03:06:18;;;;;;;1.90;1.80;;;16.70;69.40;17.90;102137.00;;;;4972580;28;20180;-48
2022/11/11 03:08:44;;;;;;;2.00;1.90;;;16.70;69.40;17.80;102146.00;;;;4989767;28;20168;-49
2022/11/11 03:11:09;;;;;;;2.30;2.10;;;16.70;69.60;17.90;102137.00;;;;4989667;28;20187;-50
2022/11/11 03:13:35;;;;;;;1.90;1.80;;;16.70;69.40;17.80;102143.00;;;;4989442;28;20194;-48
2022/11/11 03:16:01;;;;;;;1.93;1.83;;;16.60;69.30;17.80;102134.00;;;;4990087;28;20207;-49
2022/11/11 03:18:27;;;;;;;1.90;1.80;;;16.60;69.40;17.80;102139.00;;;;4989577;28;20538;-48
2022/11/11 03:21:04;;;;;;;2.33;2.13;;;16.60;69.40;17.80;102141.00;;;;4989696;28;20169;-48
2022/11/11 03:23:30;;;;;;;1.90;1.80;;;16.60;69.40;17.80;102144.00;;;;4989415;28;20188;-50
2022/11/11 03:25:56;;;;;;;2.13;1.97;;;16.60;69.40;17.80;102135.00;;;;4989466;28;20805;-48
2022/11/11 03:28:23;;;;;;;2.23;2.00;;;16.60;69.40;17.80;102130.00;;;;4989127;28;20182;-49
2022/11/11 03:30:49;;;;;;;2.10;1.90;;;16.60;69.40;17.80;102134.00;;;;4989563;28;20330;-50
2022/11/11 03:33:16;;;;;;;1.93;1.80;;;16.60;69.30;17.80;102142.00;;;;4989078;28;20193;-49
2022/11/11 03:35:42;;;;;;;1.80;1.70;;;16.60;69.40;17.80;102137.00;;;;4989255;28;20167;-50
2022/11/11 03:38:23;;;;;;;1.97;1.87;;;16.60;69.40;17.80;102139.00;;;;4989736;28;20257;-50
2022/11/11 03:40:55;;;;;;;2.00;1.70;;;16.60;69.40;17.70;102143.00;;;;4989220;28;20695;-50
2022/11/11 03:43:23;;;;;;;1.87;1.70;;;16.50;69.20;17.70;102141.00;;;;4988489;28;20203;-51
2022/11/11 03:45:50;;;;;;;2.37;2.10;;;16.50;69.20;17.70;102151.00;;;;4989187;28;20174;-50
2022/11/11 03:48:16;;;;;;;2.03;1.83;;;16.60;69.40;17.70;102155.00;;;;4988908;28;20175;-51
2022/11/11 03:50:42;;;;;;;2.30;2.10;;;16.50;69.20;17.70;102160.00;;;;4989035;28;20179;-48
2022/11/11 03:53:08;;;;;;;2.10;1.90;;;16.50;69.20;17.70;102153.00;;;;4988989;28;20206;-51
2022/11/11 03:55:33;;;;;;;2.37;1.87;;;16.50;69.40;17.70;102143.00;;;;4989195;28;20277;-50
2022/11/11 03:57:59;;;;;;;1.90;1.80;;;16.50;69.40;17.70;102138.00;;;;4989144;28;20173;-48
2022/11/11 04:00:26;;;;;;;2.10;1.90;;;16.50;69.40;17.70;102139.00;;;;4989084;28;20375;-48
2022/11/11 04:10:21;;;;;;;2.87;1.90;;;16.50;69.40;17.60;102140.00;;;;4988955;28;20201;-49
2022/11/11 04:11:42;;;;;;;1.90;1.80;;;16.50;69.40;17.60;102149.00;;;;4988832;28;20187;-50
2022/11/11 04:16:55;;;;;;;2.10;2.00;;;16.40;69.40;17.60;102144.00;;;;4988721;28;20172;-50
2022/11/11 04:22:05;;;;;;;2.07;1.90;;;16.50;69.50;17.50;102138.00;;;;4988652;28;20244;-50
2022/11/11 04:27:17;;;;;;;2.00;1.90;;;16.40;69.30;17.50;102146.00;;;;4974077;28;20540;-50
2022/11/11 04:29:43;;;;;;;8.40;2.23;;;16.40;69.60;17.60;102157.00;;;;4988748;28;20640;-50
2022/11/11 04:35:00;;;;;;;5.00;2.00;;;16.50;70.00;17.50;102153.00;;;;4988732;28;20207;-49
2022/11/11 04:37:30;;;;;;;5.10;2.00;;;16.40;69.60;17.50;102077.00;;;;4988713;28;20694;-50
2022/11/11 04:42:42;;;;;;;3.73;2.00;;;16.40;69.60;17.50;102149.00;;;;4988059;28;20215;-50
2022/11/11 04:48:01;;;;;;;3.77;2.00;;;16.40;70.00;17.50;102143.00;;;;4975374;28;20570;-48
2022/11/11 04:50:32;;;;;;;3.77;2.10;;;16.40;70.10;17.50;102139.00;;;;4989192;28;20620;-48
2022/11/11 04:52:58;;;;;;;3.40;1.97;;;16.30;70.00;17.50;102130.00;;;;4988671;28;20695;-49
2022/11/11 04:58:09;;;;;;;4.03;2.00;;;16.30;69.90;17.40;102144.00;;;;4993282;28;20164;-47
2022/11/11 05:00:35;;;;;;;1.80;1.70;;;16.40;70.00;17.40;102145.00;;;;4993100;28;20606;-50
2022/11/11 05:03:17;;;;;;;2.20;2.00;;;16.30;69.90;17.40;102150.00;;;;4975757;28;20232;-48
2022/11/11 05:08:55;;;;;;;3.63;2.20;;;16.30;69.90;17.40;102142.00;;;;4993192;28;20588;-50
2022/11/11 05:11:41;;;;;;;2.20;2.00;;;16.30;69.90;17.40;102151.00;;;;4992711;28;20165;-47
2022/11/11 05:22:31;;;;;;;3.17;1.97;;;16.20;69.70;17.40;102144.00;;;;5011719;28;20230;-49
2022/11/11 05:27:41;;;;;;;2.20;2.00;;;16.20;69.60;17.30;102140.00;;;;5011725;28;20678;-51
2022/11/11 05:30:08;;;;;;;4.23;2.03;;;16.30;69.70;17.30;102139.00;;;;5011128;28;20272;-49
2022/11/11 05:32:34;;;;;;;3.27;2.10;;;16.20;69.70;17.30;102147.00;;;;4994264;28;20582;-49
2022/11/11 05:35:00;;;;;;;3.60;2.17;;;16.20;69.60;17.30;102142.00;;;;5012149;28;20200;-49
2022/11/11 05:37:26;;;;;;;2.37;2.17;;;16.10;69.40;17.30;102150.00;;;;5012594;28;20164;-49
2022/11/11 05:39:51;;;;;;;3.07;2.10;;;16.20;69.60;17.30;102154.00;;;;5011685;28;20258;-50
2022/11/11 05:42:17;;;;;;;4.63;2.20;;;16.10;69.40;17.30;102159.00;;;;5011538;28;20168;-48
2022/11/11 05:44:43;;;;;;;2.57;2.00;;;16.10;69.40;17.30;102157.00;;;;5011532;28;20191;-50
2022/11/11 05:47:09;;;;;;;5.30;2.40;;;16.10;69.40;17.30;102171.00;;;;5011864;28;20172;-50
2022/11/11 05:49:34;;;;;;;4.67;2.20;;;16.10;69.40;17.30;102166.00;;;;5010597;28;20168;-50
2022/11/11 05:52:00;;;;;;;2.60;2.33;;;16.10;69.50;17.30;102167.00;;;;5009960;28;20179;-50
2022/11/11 05:54:26;;;;;;;5.03;2.40;;;16.10;69.40;17.30;102170.00;;;;5011552;28;20222;-50
2022/11/11 05:56:52;;;;;;;4.33;2.30;;;16.10;69.40;17.30;102169.00;;;;5011491;28;20171;-50
2022/11/11 05:59:17;;;;;;;2.70;2.33;;;16.10;69.40;17.30;102173.00;;;;5011033;28;20784;-48
2022/11/11 06:01:43;;;;;;;2.37;2.00;;;16.10;69.40;17.20;102176.00;;;;5010980;28;20181;-48
2022/11/11 06:04:09;;;;;;;3.23;2.27;;;16.10;69.40;17.20;102168.00;;;;4993309;28;20184;-49
2022/11/11 06:06:35;;;;;;;2.37;2.10;;;16.10;69.50;17.20;102176.00;;;;5010238;28;20160;-48
2022/11/11 06:09:01;;;;;;;2.43;2.20;;;16.10;69.40;17.20;102162.00;;;;4994125;28;20549;-50
2022/11/11 06:11:27;;;;;;;2.17;1.97;;;16.00;69.30;17.20;102192.00;;;;4993183;28;20708;-50
2022/11/11 06:13:53;;;;;;;1.83;1.73;;;16.10;69.40;17.20;102189.00;;;;5010733;28;20188;-51
2022/11/11 06:16:18;;;;;;;2.83;2.20;;;16.10;69.40;17.20;102181.00;;;;5011223;28;20850;-48
2022/11/11 06:18:44;;;;;;;2.97;2.10;;;16.00;69.20;17.20;102191.00;;;;5011155;28;20182;-48
2022/11/11 06:21:10;;;;;;;2.93;2.00;;;16.00;69.30;17.20;102192.00;;;;5010750;28;20191;-51
2022/11/11 06:23:35;;;;;;;3.03;2.20;;;16.10;69.40;17.20;102186.00;;;;5010687;28;20188;-50
2022/11/11 06:26:13;;;;;;;2.07;1.87;;;16.00;69.30;17.20;102185.00;;;;5010769;28;20173;-49
2022/11/11 06:28:49;;;;;;;2.97;2.00;;;16.00;69.30;17.10;102198.00;;;;4992938;28;20263;-48
2022/11/11 06:31:21;;;;;;;3.53;2.10;;;16.00;69.40;17.10;102195.00;;;;5009457;28;20570;-49
2022/11/11 06:33:46;;;;;;;3.63;2.20;;;16.00;69.30;17.10;102206.00;;;;4993387;28;20201;-49
2022/11/11 06:36:14;;;;;;;3.93;2.10;;;16.00;70.20;17.10;102210.00;;;;5010628;28;20175;-50
2022/11/11 06:38:40;;;;;;;5.20;1.90;;;16.00;69.30;17.10;102208.00;;;;5009455;28;20168;-48
2022/11/11 06:41:07;;;;;;;2.20;2.00;;;16.00;69.40;17.10;102205.00;;;;5010841;28;20285;-48
2022/11/11 06:43:33;;;;;;;4.27;2.10;;;16.00;69.40;17.10;102204.00;;;;5010522;28;20293;-48
2022/11/11 06:45:58;;;;;;;2.23;2.03;;;16.00;69.30;17.10;102208.00;;;;5010254;28;20227;-48
2022/11/11 06:48:25;;;;;;;2.23;2.03;;;15.90;69.20;17.10;102206.00;;;;5010534;28;20582;-50
2022/11/11 06:50:51;;;;;;;2.90;2.00;;;15.90;69.30;17.10;102209.00;;;;4993250;28;20191;-50
2022/11/11 06:53:18;;;;;;;2.10;1.90;;;15.90;69.20;17.10;102217.00;;;;5009841;28;20696;-48
2022/11/11 06:55:44;;;;;;;2.73;1.90;;;15.90;69.20;17.00;102209.00;;;;4992629;28;20190;-47
2022/11/11 06:58:12;;;;;;;1.90;1.80;;;15.90;69.20;17.00;102212.00;;;;5010463;28;20254;-48
2022/11/11 07:00:38;;;;;;;3.47;2.00;;;15.90;69.30;17.00;102214.00;;;;4992872;28;20199;-48
2022/11/11 07:03:05;;;;;;;2.20;2.00;;;15.90;69.30;17.00;102218.00;;;;5009973;28;20622;-49
2022/11/11 07:05:32;;;;;;;3.47;1.90;;;15.90;69.20;17.00;102220.00;;;;5010454;28;20168;-48
2022/11/11 07:08:02;;;;;;;3.53;1.90;;;15.90;69.20;17.00;102222.00;;;;5010305;28;20593;-48
2022/11/11 07:10:28;;;;;;;2.43;1.90;;;15.90;69.20;17.00;102226.00;;;;5010105;28;20258;-49
2022/11/11 07:12:54;;;;;;;2.63;1.90;;;15.90;69.20;17.00;102229.00;;;;5009404;28;20258;-48
2022/11/11 07:15:20;;;;;;;2.07;1.90;;;15.90;69.20;17.00;102226.00;;;;5009895;28;20254;-48
2022/11/11 07:17:45;;;;;;;2.20;1.70;;;15.90;69.20;17.00;102240.00;;;;5009770;28;20172;-48
2022/11/11 07:20:11;;;;;;;2.43;2.10;;;15.80;69.10;17.00;102231.00;;;;5009660;28;20207;-48
2022/11/11 07:22:37;;;;;;;2.10;1.90;;;15.80;69.10;17.00;102237.00;;;;5009650;28;20171;-48
2022/11/11 07:25:03;;;;;;;5.60;2.10;;;15.80;69.10;17.00;102234.00;;;;4992237;28;20632;-49
2022/11/11 07:27:29;;;;;;;2.27;2.00;;;15.80;69.00;17.00;102239.00;;;;5010075;28;20179;-49
2022/11/11 07:29:54;;;;;;;2.03;1.90;;;15.80;69.10;17.00;102233.00;;;;5009444;28;20172;-48
2022/11/11 07:32:20;;;;;;;2.77;2.10;;;15.80;69.00;17.00;102183.00;;;;5009393;28;20182;-49
2022/11/11 07:34:46;;;;;;;2.40;1.90;;;15.80;69.10;17.00;102246.00;;;;5009421;28;20195;-49
2022/11/11 07:37:11;;;;;;;2.83;1.90;;;15.80;69.00;16.90;102240.00;;;;5009790;28;20551;-49
2022/11/11 07:39:37;;;;;;;1.90;1.80;;;15.80;69.00;16.90;102248.00;;;;5009659;28;20231;-49
2022/11/11 07:42:03;;;;;;;3.23;1.90;;;15.80;69.00;16.90;102249.00;;;;5009569;28;20178;-49
2022/11/11 07:44:29;;;;;;;2.40;1.80;;;15.80;69.00;16.90;102252.00;;;;5009022;28;20234;-49
2022/11/11 07:46:54;;;;;;;2.33;1.90;;;15.80;69.00;16.90;102251.00;;;;5009661;28;20175;-49
2022/11/11 07:49:20;;;;;;;2.60;1.90;;;15.80;69.00;16.90;102248.00;;;;5009716;28;20199;-48
2022/11/11 07:51:46;;;;;;;1.90;1.80;;;15.80;69.00;16.90;102254.00;;;;5009236;28;20645;-48
2022/11/11 07:54:12;;;;;;;1.97;1.80;;;15.80;69.00;16.90;102255.00;;;;5008526;28;20207;-48
2022/11/11 07:56:37;;;;;;;2.13;1.93;;;15.80;69.00;16.90;102257.00;;;;5009426;28;20214;-49
2022/11/11 07:59:03;;;;;;;2.10;1.90;;;15.80;69.00;16.90;102261.00;;;;5008755;28;20229;-49
2022/11/11 08:01:29;;;;;;;2.03;1.90;;;15.70;68.80;16.90;102177.00;;;;5008915;28;20742;-49
2022/11/11 08:03:54;;;;;;;1.90;1.80;;;15.80;69.00;16.90;102270.00;;;;5008425;28;20207;-50
2022/11/11 08:06:21;;;;;;;2.23;2.00;;;15.80;69.00;16.90;102273.00;;;;5007853;28;20164;-49
2022/11/11 08:08:47;;;;;;;1.80;1.70;;;15.70;68.80;16.90;102277.00;;;;5009403;28;20170;-49
2022/11/11 08:11:13;;;;;;;1.90;1.80;;;15.70;68.80;16.90;102281.00;;;;5009363;28;20182;-49
2022/11/11 08:13:42;;;;;;;1.97;1.87;;;15.70;68.80;16.80;102280.00;;;;5008074;28;20271;-50
2022/11/11 08:16:13;;;;;;;1.97;1.80;;;15.70;68.80;16.80;102203.00;;;;5009127;28;20707;-49
2022/11/11 08:18:39;;;;;;;2.07;1.97;;;15.70;68.80;16.80;102279.00;;;;5009066;28;20199;-49
2022/11/11 08:21:05;;;;;;;1.90;1.80;;;15.70;68.90;16.80;102289.00;;;;5009175;28;20875;-49
2022/11/11 08:23:31;;;;;;;2.00;1.90;;;15.70;68.80;16.80;102292.00;;;;5008615;28;20211;-49
2022/11/11 08:26:03;;;;;;;2.20;1.90;;;15.70;69.00;16.80;102287.00;;;;5009170;28;20172;-49
2022/11/11 08:28:29;;;;;;;2.00;1.80;;;15.70;68.80;16.80;102288.00;;;;5008997;28;20860;-50
2022/11/11 08:30:57;;;;;;;2.37;1.87;;;15.70;68.80;16.80;102294.00;;;;5008594;28;20643;-50
2022/11/11 08:33:22;;;;;;;1.80;1.70;;;15.70;68.80;16.80;102287.00;;;;4991479;28;20227;-50
2022/11/11 08:35:48;;;;;;;2.27;1.70;;;15.70;68.90;16.80;102297.00;;;;5008900;28;20222;-49
2022/11/11 08:38:14;;;;;;;1.90;1.80;;;15.70;68.80;16.80;102298.00;;;;5009108;28;20183;-50
2022/11/11 08:40:40;;;;;;;2.07;1.97;;;15.70;68.80;16.80;102301.00;;;;5008337;28;20195;-49
2022/11/11 08:43:06;;;;;;;1.80;1.70;;;15.70;68.80;16.80;102285.00;;;;5008056;28;20199;-49
2022/11/11 08:45:31;;;;;;;2.10;1.90;;;15.60;68.80;16.80;102291.00;;;;5008547;28;20234;-49
2022/11/11 08:47:57;;;;;;;2.23;2.03;;;15.60;68.70;16.80;102290.00;;;;5008463;28;20234;-49
2022/11/11 08:50:23;;;;;;;1.90;1.80;;;15.70;68.80;16.80;102284.00;;;;5008604;28;20551;-50
2022/11/11 08:52:49;;;;;;;2.23;1.80;;;15.60;68.80;16.80;102282.00;;;;5008372;28;20179;-50
2022/11/11 08:55:15;;;;;;;2.17;1.90;;;15.70;68.90;16.80;102283.00;;;;5008142;28;20187;-48
2022/11/11 08:57:41;;;;;;;1.97;1.87;;;15.60;69.00;16.80;102282.00;;;;4978592;28;20668;-48
2022/11/11 09:00:08;;;;;;;2.47;2.00;;;15.70;69.20;16.80;102279.00;;;;4982005;28;20211;-49
2022/11/11 09:02:33;;;;;;;2.67;2.20;;;15.70;69.20;16.80;102288.00;;;;4982264;28;20267;-47
2022/11/11 09:04:59;;;;;;;2.87;2.00;;;15.70;70.00;16.80;102293.00;;;;4981760;28;20200;-50
2022/11/11 09:07:25;;;;;;;1.80;1.70;;;15.60;69.10;16.80;102298.00;;;;4964847;28;20308;-49
2022/11/11 09:09:51;;;;;;;2.10;1.90;;;15.70;69.20;16.80;102300.00;;;;4982537;28;20180;-49
2022/11/11 09:12:16;;;;;;;2.20;2.00;;;15.70;69.30;16.70;102296.00;;;;4982653;28;20184;-49
2022/11/11 09:14:42;;;;;;;1.77;1.60;;;15.70;69.20;16.70;102287.00;;;;4983009;28;20203;-48
2022/11/11 09:17:08;;;;;;;2.40;2.00;;;15.60;69.20;16.80;102292.00;;;;4983461;28;20211;-49
2022/11/11 09:19:34;;;;;;;2.70;1.70;;;15.60;69.20;16.80;102294.00;;;;4983080;28;20231;-49
2022/11/11 09:21:59;;;;;;;2.47;1.90;;;15.60;69.10;16.80;102297.00;;;;4982362;28;20172;-49
2022/11/11 09:24:25;;;;;;;6.33;2.10;;;15.60;69.20;16.80;102302.00;;;;4983147;28;20633;-48
2022/11/11 09:26:51;;;;;;;12.53;2.57;;;15.60;70.00;16.70;102284.00;;;;4983555;28;20186;-49
2022/11/11 09:29:17;;;;;;;11.20;2.17;;;15.60;70.00;16.70;102293.00;;;;4965651;28;20345;-48
2022/11/11 09:31:43;;;;;;;5.53;2.13;;;15.60;69.50;16.80;102291.00;;;;4983007;28;20191;-49
2022/11/11 09:34:09;;;;;;;4.57;2.20;;;15.70;70.10;16.70;102291.00;;;;4983354;28;20226;-48
2022/11/11 09:36:34;;;;;;;9.73;2.20;;;15.60;69.80;16.70;102296.00;;;;4983488;28;20656;-48
2022/11/11 09:39:00;;;;;;;13.70;2.57;;;15.70;69.90;16.70;102292.00;;;;4983355;28;20207;-48
2022/11/11 09:42:22;;;;;;;7.90;2.40;;;15.60;70.00;16.80;102298.00;;;;4983671;28;20616;-48
2022/11/11 09:45:06;;;;;;;10.40;2.40;;;15.70;70.00;16.70;102310.00;;;;4986713;28;20207;-48
2022/11/11 09:47:52;;;;;;;8.03;2.60;;;15.70;70.10;16.70;102309.00;;;;4986712;28;20211;-48
2022/11/11 09:50:22;;;;;;;9.13;2.63;;;15.70;70.00;16.70;102314.00;;;;4986352;28;20578;-49
2022/11/11 09:53:11;;;;;;;5.93;2.73;;;15.60;70.00;16.70;102308.00;;;;4967909;28;20294;-49
2022/11/11 09:55:42;;;;;;;5.23;2.33;;;15.60;70.00;16.70;102308.00;;;;4976011;28;20401;-49
2022/11/11 09:58:19;;;;;;;6.50;2.23;;;15.70;70.00;16.70;102305.00;;;;4972622;28;20227;-48
2022/11/11 10:00:47;;;;;;;6.57;2.40;;;15.60;69.90;16.70;102306.00;;;;5011776;28;20210;-49
2022/11/11 10:03:19;;;;;;;6.20;2.13;;;15.60;69.80;16.70;102263.00;;;;5013817;28;20668;-48
2022/11/11 10:06:03;;;;;;;6.27;2.40;;;15.60;69.80;16.70;102310.00;;;;5013844;28;20168;-49
2022/11/11 10:08:42;;;;;;;7.23;2.30;;;15.60;69.60;16.70;102296.00;;;;5031799;28;20178;-48
2022/11/11 10:11:39;;;;;;;3.93;2.13;;;15.70;69.90;16.70;102309.00;;;;4997714;28;20175;-49
2022/11/11 10:14:05;;;;;;;5.77;2.20;;;15.70;69.80;16.70;102298.00;;;;4988897;28;20214;-48
2022/11/11 10:16:58;;;;;;;5.97;2.10;;;15.70;69.80;16.70;102299.00;;;;5013036;28;20179;-49
2022/11/11 10:20:19;;;;;;;4.30;2.20;;;15.60;69.60;16.70;102301.00;;;;5016008;28;20210;-48
2022/11/11 10:22:45;;;;;;;4.70;2.00;;;15.70;69.70;16.60;102291.00;;;;5016957;28;20186;-49
2022/11/11 10:25:11;;;;;;;4.87;2.00;;;15.70;69.80;16.60;102303.00;;;;5013502;28;20667;-48
2022/11/11 10:27:39;;;;;;;3.93;2.13;;;15.60;69.60;16.60;102312.00;;;;5030946;28;20180;-49
2022/11/11 10:30:31;;;;;;;3.03;2.20;;;15.60;69.60;16.60;102309.00;;;;5013509;28;20325;-50
2022/11/11 10:33:09;;;;;;;3.17;2.00;;;15.60;69.60;16.60;102302.00;;;;5030561;28;20171;-49
2022/11/11 10:35:37;;;;;;;3.53;2.00;;;15.60;69.60;16.60;102301.00;;;;4998877;28;20548;-50
2022/11/11 10:38:08;;;;;;;4.63;2.37;;;15.70;69.70;16.60;102301.00;;;;5014575;28;20206;-49
2022/11/11 10:40:50;;;;;;;4.30;2.20;;;15.70;69.80;16.60;102300.00;;;;5013666;28;20249;-48
2022/11/11 10:43:27;;;;;;;4.10;2.00;;;15.70;69.80;16.60;102299.00;;;;4996887;28;20609;-48
2022/11/11 10:45:59;;;;;;;4.57;2.10;;;15.60;69.80;16.60;102305.00;;;;5030736;28;20166;-48
2022/11/11 10:48:47;;;;;;;2.87;2.10;;;15.60;69.70;16.60;102299.00;;;;5030847;28;20181;-49
2022/11/11 10:51:13;;;;;;;4.20;2.10;;;15.60;69.60;16.60;102299.00;;;;5015575;28;20641;-49
2022/11/11 10:54:06;;;;;;;5.63;2.07;;;15.60;69.60;16.60;102300.00;;;;5012318;28;20194;-48
2022/11/11 10:57:15;;;;;;;2.20;2.00;;;15.70;69.90;16.70;102314.00;;;;5012703;28;20159;-49
2022/11/11 10:59:45;;;;;;;2.90;1.90;;;15.60;69.60;16.60;102296.00;;;;5030140;28;20260;-49
2022/11/11 11:02:33;;;;;;;2.70;2.00;;;15.70;69.80;16.60;102301.00;;;;5012304;28;20207;-49
2022/11/11 11:05:12;;;;;;;3.00;2.03;;;15.70;69.80;16.60;102304.00;;;;5012627;28;20191;-49
2022/11/11 11:07:45;;;;;;;2.47;2.03;;;15.60;69.80;16.60;102298.00;;;;5012612;28;20163;-49
2022/11/11 11:10:20;;;;;;;4.40;2.10;;;15.70;69.90;16.60;102302.00;;;;4996602;28;20643;-49
2022/11/11 11:13:03;;;;;;;2.60;1.80;;;15.60;69.80;16.70;102299.00;;;;5012378;28;20658;-48
2022/11/11 11:15:29;;;;;;;3.33;2.00;;;15.70;69.80;16.70;102301.00;;;;5030302;28;20178;-49
2022/11/11 11:18:07;;;;;;;1.93;1.77;;;15.60;69.80;16.70;102298.00;;;;4996050;28;20175;-49
2022/11/11 11:20:32;;;;;;;2.40;2.00;;;15.70;69.90;16.70;102305.00;;;;5012164;28;20226;-50
2022/11/11 11:23:00;;;;;;;3.10;2.00;;;15.70;70.00;16.70;102295.00;;;;5029519;28;20722;-50
2022/11/11 11:25:28;;;;;;;2.90;1.83;;;15.60;69.90;16.70;102297.00;;;;5012687;28;20254;-50
2022/11/11 11:28:11;;;;;;;2.70;2.00;;;15.70;70.00;16.70;102308.00;;;;4996645;28;20177;-49
2022/11/11 11:30:37;;;;;;;2.33;2.00;;;15.60;69.80;16.70;102297.00;;;;5013560;28;20159;-50
2022/11/11 11:33:04;;;;;;;5.67;2.00;;;15.70;70.00;16.70;102287.00;;;;5029936;28;20703;-49
2022/11/11 11:35:43;;;;;;;3.37;2.00;;;15.60;69.90;16.70;102286.00;;;;5030766;28;20163;-49
2022/11/11 11:38:10;;;;;;;2.53;1.83;;;15.60;69.90;16.70;102290.00;;;;5030027;28;20266;-49
2022/11/11 11:40:52;;;;;;;2.07;1.90;;;15.60;70.00;16.70;102294.00;;;;5030459;28;20214;-49
2022/11/11 11:43:25;;;;;;;1.93;1.80;;;15.60;70.00;16.70;102300.00;;;;5030149;28;20281;-49
2022/11/11 11:45:56;;;;;;;2.10;1.90;;;15.70;70.10;16.70;102284.00;;;;5030368;28;20644;-49
2022/11/11 11:48:47;;;;;;;5.00;2.00;;;15.60;70.00;16.70;102286.00;;;;5030134;28;20281;-48
2022/11/11 11:51:31;;;;;;;2.97;2.00;;;15.70;70.10;16.70;102277.00;;;;4988779;28;20194;-47
2022/11/11 11:54:30;;;;;;;3.77;1.77;;;15.70;70.10;16.70;102263.00;;;;5028077;28;20278;-47
2022/11/11 11:57:02;;;;;;;2.63;1.83;;;15.70;70.10;16.70;102276.00;;;;5012373;28;20162;-47
2022/11/11 11:59:38;;;;;;;2.00;1.80;;;15.70;70.10;16.70;102278.00;;;;5011802;28;20198;-50
2022/11/11 12:02:44;;;;;;;4.00;1.97;;;15.70;70.10;16.70;102280.00;;;;5011166;28;20162;-50
2022/11/11 12:05:35;;;;;;;2.13;1.83;;;15.70;70.10;16.70;102274.00;;;;5028487;28;20186;-48